Time;durP1;ratioP1;P1;durP2;ratioP2;P2;SDS_P1;SDS_P2;PMS_P1;PMS_P2;Temp;Humidity;BMP_temperature;BMP_pressure;BME280_temperature;BME280_humidity;BME280_pressure;Samples;Min_cycle;Max_cycle;Signal;HPM_P1;HPM_P2
2021/01/17 00:00:54;;;;;;;22.50;14.02;;;;;;;-1.42;90.24;100133.34;5043704;28;20063;-74
2021/01/17 00:03:21;;;;;;;25.58;15.80;;;;;;;-0.71;90.42;100236.38;5057964;28;20053;-73
2021/01/17 00:05:49;;;;;;;23.92;14.95;;;;;;;-0.77;89.90;100236.47;5058089;28;20067;-74
2021/01/17 00:08:19;;;;;;;26.03;14.87;;;;;;;-0.70;89.40;100235.50;5057321;28;20060;-72
2021/01/17 00:10:45;;;;;;;24.35;15.27;;;;;;;-0.74;89.40;100226.78;5057321;28;20059;-75
2021/01/17 00:13:12;;;;;;;25.45;16.05;;;;;;;-0.67;89.98;100226.72;5057971;28;20060;-75
2021/01/17 00:15:39;;;;;;;24.70;14.57;;;;;;;-0.72;90.01;100221.50;5056643;28;20122;-73
2021/01/17 00:18:06;;;;;;;26.73;15.25;;;;;;;-0.70;88.99;100232.88;5057970;28;20059;-72
2021/01/17 00:20:33;;;;;;;24.70;14.75;;;;;;;-0.76;89.62;100218.06;5058017;28;20053;-73
2021/01/17 00:23:04;;;;;;;25.92;15.48;;;;;;;-0.67;89.06;100231.97;5057344;28;20178;-73
2021/01/17 00:25:32;;;;;;;24.17;14.55;;;;;;;-0.62;90.18;100224.88;5057721;28;20049;-73
2021/01/17 00:28:01;;;;;;;27.38;15.30;;;;;;;-0.58;89.87;100203.88;5057141;28;20061;-73
2021/01/17 00:30:30;;;;;;;23.15;13.73;;;;;;;-0.57;88.56;100202.09;5057290;28;20399;-72
2021/01/17 00:32:59;;;;;;;26.08;15.70;;;;;;;-0.64;89.70;100187.34;5056753;28;20354;-73
2021/01/17 00:35:28;;;;;;;28.05;14.60;;;;;;;-0.60;89.62;100195.13;5056967;28;20098;-74
2021/01/17 00:37:55;;;;;;;22.45;13.52;;;;;;;-0.59;88.19;100196.00;5055737;28;20056;-74
2021/01/17 00:40:23;;;;;;;27.13;14.55;;;;;;;-0.58;88.45;100197.75;5056949;28;20110;-73
2021/01/17 00:42:50;;;;;;;25.10;14.48;;;;;;;-0.60;88.27;100210.00;5057384;28;20067;-73
2021/01/17 00:45:17;;;;;;;22.73;13.73;;;;;;;-0.58;89.00;100221.34;5056848;28;20048;-73
2021/01/17 00:47:48;;;;;;;22.73;14.45;;;;;;;-0.57;88.76;100209.97;5057246;28;20473;-74
2021/01/17 00:50:16;;;;;;;15.88;9.43;;;;;;;-0.54;88.84;100209.94;5056298;28;20107;-72
2021/01/17 00:52:42;;;;;;;24.45;14.70;;;;;;;-0.57;88.81;100213.47;5057021;28;20122;-73
2021/01/17 00:55:09;;;;;;;20.23;10.80;;;;;;;-0.52;87.96;100207.25;5055758;28;20587;-73
2021/01/17 00:57:36;;;;;;;21.23;12.95;;;;;;;-0.63;87.93;100192.56;5056634;28;20124;-74
2021/01/17 01:00:10;;;;;;;22.52;13.18;;;;;;;-0.55;88.64;100210.78;5056436;28;20423;-72
2021/01/17 01:02:40;;;;;;;21.65;13.50;;;;;;;-0.57;88.59;100218.69;5051595;28;20057;-73
2021/01/17 01:05:08;;;;;;;19.17;12.57;;;;;;;-0.56;88.78;100216.94;5036629;28;20052;-73
2021/01/17 01:07:35;;;;;;;20.13;12.52;;;;;;;-0.55;88.86;100223.91;5036845;28;20057;-73
2021/01/17 01:10:05;;;;;;;21.85;13.70;;;;;;;-0.54;89.16;100215.19;5036512;28;20049;-72
2021/01/17 01:12:32;;;;;;;22.67;13.13;;;;;;;-0.56;88.55;100214.31;5036901;28;20426;-71
2021/01/17 01:14:58;;;;;;;21.80;13.45;;;;;;;-0.52;89.38;100209.88;5035644;28;20061;-71
2021/01/17 01:17:25;;;;;;;23.80;13.13;;;;;;;-0.54;88.37;100220.41;5036498;28;20107;-71
2021/01/17 01:19:52;;;;;;;21.13;12.75;;;;;;;-0.45;88.69;100222.00;5035050;28;20395;-72
2021/01/17 01:22:18;;;;;;;23.05;12.38;;;;;;;-0.52;88.08;100217.75;5036267;28;20439;-72
2021/01/17 01:24:45;;;;;;;19.83;12.57;;;;;;;-0.57;89.49;100218.69;5036084;28;20057;-72
2021/01/17 01:27:12;;;;;;;22.75;13.48;;;;;;;-0.52;89.23;100221.25;5036555;28;20053;-72
2021/01/17 01:29:38;;;;;;;23.90;13.90;;;;;;;-0.52;89.35;100218.63;5035945;28;20061;-73
2021/01/17 01:32:05;;;;;;;21.80;11.95;;;;;;;-0.55;90.34;100209.06;5035161;28;20053;-74
2021/01/17 01:34:32;;;;;;;21.85;13.13;;;;;;;-0.51;90.97;100217.75;5036261;28;20057;-72
2021/01/17 01:36:58;;;;;;;23.63;13.23;;;;;;;-0.55;91.78;100214.28;5036143;28;20126;-72
2021/01/17 01:39:24;;;;;;;25.85;13.80;;;;;;;-0.54;91.18;100217.78;5035032;28;20099;-71
2021/01/17 01:41:50;;;;;;;22.40;13.23;;;;;;;-0.51;91.00;100217.75;5035927;28;20361;-72
2021/01/17 01:44:17;;;;;;;21.67;13.38;;;;;;;-0.48;91.56;100216.84;5036240;28;20080;-73
2021/01/17 01:46:43;;;;;;;23.67;12.98;;;;;;;-0.52;91.19;100217.75;5036149;28;20049;-72
2021/01/17 01:49:11;;;;;;;27.88;14.20;;;;;;;-0.61;92.18;100205.66;5035512;28;20112;-73
2021/01/17 01:51:38;;;;;;;23.45;14.15;;;;;;;-0.57;91.84;100217.81;5035529;28;20056;-71
2021/01/17 01:54:06;;;;;;;23.65;14.65;;;;;;;-0.48;92.43;100216.84;5035858;28;20111;-72
2021/01/17 01:56:33;;;;;;;21.55;13.55;;;;;;;-0.50;91.99;100208.97;5034751;28;20061;-74
2021/01/17 01:59:03;;;;;;;23.88;14.45;;;;;;;-0.43;91.92;100215.03;5034903;28;20053;-73
2021/01/17 02:01:29;;;;;;;24.63;14.20;;;;;;;-0.44;91.75;100208.88;5035408;28;20100;-72
2021/01/17 02:03:55;;;;;;;24.15;13.30;;;;;;;-0.46;91.56;100209.81;5034814;28;20053;-74
2021/01/17 02:06:23;;;;;;;27.15;14.80;;;;;;;-0.38;91.41;100220.19;5034458;28;20104;-72
2021/01/17 02:08:55;;;;;;;24.00;14.05;;;;;;;-0.47;92.19;100214.19;5035642;28;20049;-72
2021/01/17 02:11:32;;;;;;;21.38;13.48;;;;;;;-0.53;92.42;100208.16;5035438;28;20064;-72
2021/01/17 02:14:26;;;;;;;23.45;14.13;;;;;;;-0.46;93.19;100210.69;5035483;28;20061;-72
2021/01/17 02:16:55;;;;;;;22.80;14.65;;;;;;;-0.42;93.35;100212.34;5035209;28;20485;-71
2021/01/17 02:19:29;;;;;;;22.92;14.52;;;;;;;-0.36;93.66;100205.28;5035569;28;20064;-71
2021/01/17 02:21:58;;;;;;;28.88;15.73;;;;;;;-0.39;93.06;100198.31;5035450;28;20099;-72
2021/01/17 02:24:31;;;;;;;23.48;14.63;;;;;;;-0.36;93.26;100210.53;5035325;28;20057;-74
2021/01/17 02:26:59;;;;;;;25.65;15.30;;;;;;;-0.38;93.01;100207.91;5017854;28;20045;-74
2021/01/17 02:29:27;;;;;;;26.95;16.15;;;;;;;-0.42;93.51;100206.25;5034971;28;20064;-72
2021/01/17 02:32:00;;;;;;;26.48;15.35;;;;;;;-0.46;93.69;100194.06;5035301;28;20061;-72
2021/01/17 02:34:29;;;;;;;27.52;14.88;;;;;;;-0.39;93.77;100207.97;5035190;28;20049;-71
2021/01/17 02:37:01;;;;;;;23.88;15.18;;;;;;;-0.43;93.50;100205.38;5034963;28;20049;-72
2021/01/17 02:39:48;;;;;;;25.38;14.65;;;;;;;-0.40;93.60;100201.84;5035239;28;20054;-72
2021/01/17 02:42:15;;;;;;;22.50;14.60;;;;;;;-0.34;93.50;100198.25;5035119;28;20049;-72
2021/01/17 02:44:41;;;;;;;24.40;15.60;;;;;;;-0.36;93.62;100202.66;5034975;28;20045;-74
2021/01/17 02:47:08;;;;;;;24.30;14.85;;;;;;;-0.30;93.87;100195.59;5033887;28;20045;-72
2021/01/17 02:49:34;;;;;;;28.77;15.10;;;;;;;-0.25;93.29;100195.50;5035135;28;20089;-71
2021/01/17 02:52:06;;;;;;;24.10;14.80;;;;;;;-0.28;93.19;100198.16;5034831;28;20053;-72
2021/01/17 02:54:38;;;;;;;28.63;14.60;;;;;;;-0.31;93.09;100201.72;5035115;28;20807;-72
2021/01/17 02:57:07;;;;;;;25.60;15.65;;;;;;;-0.26;93.66;100204.28;5035058;28;20045;-74
2021/01/17 02:59:53;;;;;;;23.60;15.32;;;;;;;-0.25;93.76;100208.63;5034956;28;20136;-71
2021/01/17 03:02:25;;;;;;;26.67;15.20;;;;;;;-0.28;92.74;100208.66;5036456;28;20046;-72
2021/01/17 03:04:57;;;;;;;23.52;14.63;;;;;;;-0.23;92.33;100205.97;5038785;28;20080;-72
2021/01/17 03:07:23;;;;;;;;;;;;;;;-0.20;92.92;100212.03;5039329;28;20150;-74
2021/01/17 03:09:50;;;;;;;25.85;13.55;;;;;;;-0.15;92.73;100211.97;5039024;28;19921;-74
2021/01/17 03:12:16;;;;;;;23.15;14.85;;;;;;;-0.22;93.03;100205.94;5038572;28;20052;-72
2021/01/17 03:14:45;;;;;;;22.98;13.82;;;;;;;-0.24;92.89;100197.22;5039121;28;20057;-73
2021/01/17 03:17:12;;;;;;;24.23;14.73;;;;;;;-0.15;92.98;100215.44;5038639;28;20053;-72
2021/01/17 03:19:38;;;;;;;25.35;14.93;;;;;;;-0.25;93.11;100197.25;5039291;28;20053;-72
2021/01/17 03:22:04;;;;;;;22.55;13.65;;;;;;;-0.11;93.40;100205.75;5039235;28;20058;-72
2021/01/17 03:24:31;;;;;;;29.27;16.17;;;;;;;-0.14;93.13;100205.81;5037593;28;20079;-72
2021/01/17 03:26:57;;;;;;;24.80;15.05;;;;;;;-0.09;93.24;100208.38;5038445;28;20057;-73
2021/01/17 03:29:23;;;;;;;25.00;14.77;;;;;;;-0.06;93.20;100201.31;5037284;28;20065;-73
2021/01/17 03:31:49;;;;;;;22.23;14.73;;;;;;;-0.02;93.23;100205.63;5038037;28;20042;-72
2021/01/17 03:34:16;;;;;;;25.80;13.90;;;;;;;-0.04;92.75;100201.28;5038198;28;20446;-72
2021/01/17 03:36:42;;;;;;;25.13;14.32;;;;;;;-0.15;92.69;100183.09;5038441;28;20053;-73
2021/01/17 03:39:08;;;;;;;25.02;15.30;;;;;;;-0.07;92.77;100175.97;5038450;28;20095;-74
2021/01/17 03:41:35;;;;;;;24.95;14.88;;;;;;;-0.02;92.64;100191.63;5053344;28;20054;-74
2021/01/17 03:44:01;;;;;;;26.23;14.15;;;;;;;-0.02;92.65;100189.00;5037201;28;20049;-73
2021/01/17 03:46:31;;;;;;;23.85;14.20;;;;;;;-0.07;92.96;100190.84;5036748;28;20054;-72
2021/01/17 03:48:58;;;;;;;28.98;15.35;;;;;;;-0.03;92.87;100187.28;5036977;28;20498;-73
2021/01/17 03:51:24;;;;;;;25.75;14.38;;;;;;;-0.07;93.32;100183.84;5037109;28;20057;-72
2021/01/17 03:53:50;;;;;;;27.75;14.95;;;;;;;-0.10;93.93;100191.78;5020535;28;20061;-73
2021/01/17 03:56:17;;;;;;;26.65;15.10;;;;;;;-0.07;93.70;100178.59;5037788;28;20431;-72
2021/01/17 03:58:43;;;;;;;29.88;14.73;;;;;;;0.11;93.63;100187.91;5037672;28;20056;-72
2021/01/17 04:01:10;;;;;;;30.45;14.98;;;;;;;0.08;93.09;100181.84;5036645;28;20076;-74
2021/01/17 04:03:37;;;;;;;25.27;14.57;;;;;;;0.10;92.73;100175.69;5037949;28;20225;-73
2021/01/17 04:06:04;;;;;;;28.40;14.27;;;;;;;0.06;93.06;100186.25;5037753;28;20489;-73
2021/01/17 04:08:30;;;;;;;30.88;15.73;;;;;;;0.08;93.00;100185.34;5038089;28;20053;-73
2021/01/17 04:10:56;;;;;;;27.23;14.38;;;;;;;0.06;93.09;100176.63;5036850;28;20061;-72
2021/01/17 04:13:24;;;;;;;25.92;14.90;;;;;;;0.06;93.51;100181.88;5036740;28;20424;-72
2021/01/17 04:15:50;;;;;;;27.92;15.90;;;;;;;0.08;93.32;100182.72;5037748;28;20351;-73
2021/01/17 04:18:17;;;;;;;27.42;14.57;;;;;;;0.12;93.04;100194.88;5036567;28;20053;-73
2021/01/17 04:20:43;;;;;;;25.42;14.27;;;;;;;0.21;93.16;100187.75;5036287;28;20065;-72
2021/01/17 04:23:10;;;;;;;28.83;15.13;;;;;;;0.16;93.13;100171.22;5037616;28;20049;-73
2021/01/17 04:25:36;;;;;;;26.75;14.32;;;;;;;0.17;92.80;100171.19;5037720;28;20099;-72
2021/01/17 04:28:03;;;;;;;29.20;14.10;;;;;;;0.21;92.75;100182.50;5035977;28;20068;-74
2021/01/17 04:30:31;;;;;;;26.67;14.18;;;;;;;0.18;93.29;100191.31;5037231;28;20432;-74
2021/01/17 04:32:58;;;;;;;27.92;14.77;;;;;;;0.13;93.21;100193.97;5037244;28;20053;-73
2021/01/17 04:35:24;;;;;;;30.35;15.27;;;;;;;0.13;93.36;100183.50;5037482;28;20057;-73
2021/01/17 04:37:57;;;;;;;28.67;14.70;;;;;;;0.18;93.48;100185.19;5035837;28;20382;-73
2021/01/17 04:40:24;;;;;;;31.13;14.98;;;;;;;0.22;93.16;100192.97;5036417;28;20053;-72
2021/01/17 04:43:05;;;;;;;28.38;15.20;;;;;;;0.20;93.50;100189.50;5019452;28;20083;-72
2021/01/17 04:45:32;;;;;;;;;;;;;;;0.16;94.12;100190.44;5036304;28;20049;-73
2021/01/17 04:48:02;;;;;;;27.77;14.55;;;;;;;0.20;94.37;100196.50;5037194;28;20015;-73
2021/01/17 04:50:33;;;;;;;27.67;15.18;;;;;;;0.21;93.92;100206.13;5035742;28;20054;-73
2021/01/17 04:53:01;;;;;;;30.17;15.45;;;;;;;0.22;94.44;100202.63;5036650;28;20423;-72
2021/01/17 04:55:27;;;;;;;28.92;15.05;;;;;;;0.15;94.23;100190.50;5036975;28;20060;-74
2021/01/17 04:58:05;;;;;;;27.42;15.30;;;;;;;0.17;94.48;100204.44;5035522;28;20060;-73
2021/01/17 05:00:32;;;;;;;28.30;14.75;;;;;;;0.16;94.70;100200.94;5036710;28;20061;-72
2021/01/17 05:03:17;;;;;;;31.90;15.10;;;;;;;0.20;95.36;100193.88;5054341;28;20056;-74
2021/01/17 05:06:08;;;;;;;28.58;15.20;;;;;;;0.22;95.45;100189.50;5056738;28;20350;-72
2021/01/17 05:08:34;;;;;;;28.13;15.55;;;;;;;0.26;95.22;100191.16;5056606;28;20053;-73
2021/01/17 05:11:06;;;;;;;28.67;14.93;;;;;;;0.31;95.35;100184.06;5056781;28;20102;-73
2021/01/17 05:13:48;;;;;;;25.40;14.23;;;;;;;0.30;95.14;100184.97;5056225;28;20052;-73
2021/01/17 05:16:15;;;;;;;26.70;13.43;;;;;;;0.33;95.15;100190.16;5056703;28;20053;-73
2021/01/17 05:18:55;;;;;;;30.00;13.88;;;;;;;0.24;95.37;100172.81;5055189;28;20136;-73
2021/01/17 05:21:25;;;;;;;27.65;15.25;;;;;;;0.38;94.74;100183.06;5056662;28;20056;-73
2021/01/17 05:23:54;;;;;;;30.55;14.38;;;;;;;0.37;95.43;100186.56;5055428;28;20103;-73
2021/01/17 05:26:20;;;;;;;30.13;15.00;;;;;;;0.33;95.21;100182.25;5055169;28;20067;-72
2021/01/17 05:28:47;;;;;;;30.00;15.15;;;;;;;0.33;95.68;100187.50;5055969;28;20477;-73
2021/01/17 05:31:17;;;;;;;28.10;15.00;;;;;;;0.35;95.76;100185.75;5055983;28;20433;-71
2021/01/17 05:33:44;;;;;;;23.13;10.65;;;;;;;0.34;96.48;100183.16;5056314;28;20071;-71
2021/01/17 05:36:15;;;;;;;26.63;15.25;;;;;;;0.23;96.22;100162.34;5055972;28;20504;-73
2021/01/17 05:38:41;;;;;;;34.63;15.00;;;;;;;0.40;96.25;100186.50;5055908;28;20053;-72
2021/01/17 05:41:24;;;;;;;27.73;14.93;;;;;;;0.26;96.39;100183.28;5055690;28;20045;-73
2021/01/17 05:43:51;;;;;;;29.02;14.63;;;;;;;0.33;96.53;100184.03;5055946;28;20077;-72
2021/01/17 05:46:17;;;;;;;28.15;15.55;;;;;;;0.32;96.73;100191.03;5057409;28;20079;-73
2021/01/17 05:48:43;;;;;;;26.25;14.73;;;;;;;0.37;96.43;100197.09;5058142;28;20057;-74
2021/01/17 05:51:27;;;;;;;27.55;13.95;;;;;;;0.33;96.70;100179.63;5056801;28;20227;-73
2021/01/17 05:53:55;;;;;;;27.52;13.68;;;;;;;0.40;96.50;100177.78;5057914;28;20045;-72
2021/01/17 05:56:21;;;;;;;28.42;15.07;;;;;;;0.43;96.74;100195.25;5056113;28;20185;-72
2021/01/17 05:58:48;;;;;;;32.92;15.55;;;;;;;0.40;97.13;100183.03;5054717;28;20055;-72
2021/01/17 06:01:15;;;;;;;28.88;14.07;;;;;;;0.49;97.09;100197.75;5051939;28;20084;-73
2021/01/17 06:03:55;;;;;;;25.83;13.30;;;;;;;0.48;97.58;100190.78;5035468;28;20134;-73
2021/01/17 06:06:29;;;;;;;20.90;12.40;;;;;;;0.45;97.15;100188.19;5034348;28;20521;-74
2021/01/17 06:08:59;;;;;;;22.15;12.30;;;;;;;0.60;96.76;100201.03;5034615;28;20096;-74
2021/01/17 06:11:27;;;;;;;19.88;11.95;;;;;;;0.54;97.09;100194.13;5035364;28;20054;-74
2021/01/17 06:13:56;;;;;;;22.30;11.95;;;;;;;0.57;97.29;100203.72;5018266;28;20049;-73
2021/01/17 06:16:35;;;;;;;21.25;12.32;;;;;;;0.56;96.89;100196.75;5035578;28;20092;-73
2021/01/17 06:19:04;;;;;;;20.95;11.70;;;;;;;0.49;96.89;100189.88;5035233;28;20145;-73
2021/01/17 06:21:31;;;;;;;21.60;12.07;;;;;;;0.61;97.32;100194.88;5034521;28;20111;-72
2021/01/17 06:24:03;;;;;;;22.25;11.93;;;;;;;0.55;97.06;100189.78;5034123;28;20053;-73
2021/01/17 06:26:40;;;;;;;21.13;11.35;;;;;;;0.59;97.26;100207.19;5035407;28;20061;-73
2021/01/17 06:29:10;;;;;;;19.83;11.65;;;;;;;0.60;96.93;100206.28;5035035;28;20065;-73
2021/01/17 06:31:38;;;;;;;20.48;11.95;;;;;;;0.65;97.23;100200.97;5035099;28;20087;-73
2021/01/17 06:34:14;;;;;;;19.95;11.52;;;;;;;0.67;97.23;100207.88;5033824;28;20136;-73
2021/01/17 06:36:42;;;;;;;18.45;10.85;;;;;;;0.69;97.20;100197.38;5034489;28;20580;-73
2021/01/17 06:39:19;;;;;;;19.35;11.60;;;;;;;0.63;97.15;100193.09;5033792;28;20054;-73
2021/01/17 06:41:48;;;;;;;19.95;11.35;;;;;;;0.70;97.48;100208.75;5034188;28;20057;-73
2021/01/17 06:44:14;;;;;;;17.77;11.18;;;;;;;0.74;97.32;100211.28;5034871;28;20050;-73
2021/01/17 06:46:46;;;;;;;20.05;11.70;;;;;;;0.58;97.64;100188.81;5034851;28;20064;-72
2021/01/17 06:49:23;;;;;;;21.27;11.07;;;;;;;0.71;97.85;100218.34;5033965;28;20100;-73
2021/01/17 06:51:50;;;;;;;18.75;9.90;;;;;;;0.79;97.49;100224.31;5035003;28;20095;-72
2021/01/17 06:54:19;;;;;;;17.50;10.40;;;;;;;0.75;97.83;100225.25;5034046;28;20115;-73
2021/01/17 06:56:47;;;;;;;17.25;10.10;;;;;;;0.80;97.50;100231.31;5033929;28;20053;-74
2021/01/17 06:59:28;;;;;;;23.58;11.55;;;;;;;0.80;97.74;100236.56;5035138;28;20046;-73
2021/01/17 07:02:17;;;;;;;20.85;11.77;;;;;;;0.83;98.08;100239.16;5042769;28;20045;-72
2021/01/17 07:04:53;;;;;;;23.13;11.48;;;;;;;0.85;98.36;100237.34;5054991;28;20079;-73
2021/01/17 07:07:34;;;;;;;23.08;10.80;;;;;;;0.85;98.06;100249.59;5053851;28;20103;-73
2021/01/17 07:10:03;;;;;;;26.33;11.60;;;;;;;0.71;98.39;100231.50;5054697;28;20045;-73
2021/01/17 07:13:00;;;;;;;24.77;11.80;;;;;;;0.84;98.21;100242.63;5054933;28;20057;-74
2021/01/17 07:15:29;;;;;;;28.30;12.77;;;;;;;0.84;98.27;100243.50;5054541;28;20510;-72
2021/01/17 07:18:05;;;;;;;30.10;13.13;;;;;;;0.74;98.98;100224.41;5053662;28;20107;-73
2021/01/17 07:20:33;;;;;;;35.85;14.13;;;;;;;0.93;98.99;100264.34;5054512;28;20056;-74
2021/01/17 07:23:02;;;;;;;28.15;13.48;;;;;;;1.07;98.92;100276.34;5054457;28;20076;-73
2021/01/17 07:25:29;;;;;;;36.25;14.32;;;;;;;1.00;98.61;100270.34;5054637;28;20056;-73
2021/01/17 07:28:12;;;;;;;30.55;14.63;;;;;;;1.04;98.61;100272.00;5054445;28;20114;-73
2021/01/17 07:30:56;;;;;;;34.75;14.38;;;;;;;1.08;98.51;100272.81;5054347;28;20438;-73
2021/01/17 07:33:29;;;;;;;34.13;15.13;;;;;;;1.00;98.74;100278.25;5054720;28;20126;-73
2021/01/17 07:35:58;;;;;;;39.67;15.70;;;;;;;1.04;98.50;100289.56;5054345;28;20076;-72
2021/01/17 07:38:35;;;;;;;45.45;16.85;;;;;;;1.03;98.69;100282.56;5070198;28;20381;-72
2021/01/17 07:41:01;;;;;;;47.90;17.77;;;;;;;1.06;99.05;100285.13;5054425;28;20060;-72
2021/01/17 07:43:31;;;;;;;40.55;16.95;;;;;;;1.08;99.21;100294.72;5054302;28;20057;-72
2021/01/17 07:46:01;;;;;;;47.42;17.85;;;;;;;1.05;99.08;100292.13;5053111;28;20121;-72
2021/01/17 07:48:28;;;;;;;44.47;17.95;;;;;;;1.10;98.91;100296.44;5055871;28;20107;-72
2021/01/17 07:51:00;;;;;;;46.08;18.13;;;;;;;1.10;99.03;100304.34;5058116;28;20052;-71
2021/01/17 07:53:38;;;;;;;;;;;;;;;1.15;98.82;100305.13;5058214;28;20057;-71
2021/01/17 07:56:08;;;;;;;51.33;18.42;;;;;;;1.12;99.29;100306.03;5057992;28;19928;-70
2021/01/17 07:58:48;;;;;;;49.75;17.92;;;;;;;1.18;99.51;100310.31;5057590;28;20110;-71
2021/01/17 08:01:33;;;;;;;41.38;17.75;;;;;;;1.21;99.61;100316.38;5046775;28;20046;-71
2021/01/17 08:04:16;;;;;;;49.53;20.98;;;;;;;1.24;99.46;100323.31;5037760;28;20053;-71
2021/01/17 08:06:42;;;;;;;52.63;18.35;;;;;;;1.27;99.49;100317.16;5037570;28;20049;-73
2021/01/17 08:09:16;;;;;;;57.25;20.63;;;;;;;1.32;99.43;100320.56;5037992;28;20056;-73
2021/01/17 08:11:45;;;;;;;62.17;19.98;;;;;;;1.43;99.37;100325.59;5037698;28;20111;-73
2021/01/17 08:14:23;;;;;;;53.65;20.38;;;;;;;1.41;99.02;100327.41;5037696;28;20049;-73
2021/01/17 08:17:19;;;;;;;55.63;19.80;;;;;;;1.44;99.46;100333.47;5037395;28;20052;-73
2021/01/17 08:19:52;;;;;;;56.67;19.80;;;;;;;1.52;99.38;100342.97;5029139;28;20053;-76
2021/01/17 08:22:21;;;;;;;61.53;21.13;;;;;;;1.51;99.46;100347.34;5046490;28;20052;-72
2021/01/17 08:24:58;;;;;;;69.35;20.60;;;;;;;1.54;99.26;100349.03;5049647;28;20060;-71
2021/01/17 08:27:30;;;;;;;57.67;20.23;;;;;;;1.57;99.22;100355.09;5036335;28;20440;-71
2021/01/17 08:30:11;;;;;;;67.40;23.48;;;;;;;1.57;99.00;100349.00;5047731;28;20053;-75
2021/01/17 08:32:59;;;;;;;62.05;22.48;;;;;;;1.59;99.21;100362.97;5056325;28;20049;-74
2021/01/17 08:35:25;;;;;;;64.60;22.65;;;;;;;1.65;99.42;100375.13;5057099;28;20056;-74
2021/01/17 08:38:11;;;;;;;78.88;23.48;;;;;;;1.63;99.24;100375.16;5056050;28;20053;-72
2021/01/17 08:40:37;;;;;;;71.53;22.02;;;;;;;1.62;99.38;100373.44;5056236;28;20045;-74
2021/01/17 08:43:09;;;;;;;73.63;22.98;;;;;;;1.67;99.50;100371.56;5057305;28;20338;-72
2021/01/17 08:45:38;;;;;;;62.97;23.63;;;;;;;1.72;99.10;100368.84;5057056;28;20057;-73
2021/01/17 08:48:17;;;;;;;67.15;23.52;;;;;;;1.76;98.89;100376.63;5056660;28;20064;-72
2021/01/17 08:50:48;;;;;;;81.60;24.70;;;;;;;1.69;99.24;100384.72;5055674;28;20053;-73
2021/01/17 08:53:26;;;;;;;83.25;25.08;;;;;;;1.67;99.15;100375.97;5056816;28;20048;-72
2021/01/17 08:55:53;;;;;;;67.03;23.90;;;;;;;1.79;98.95;100385.38;5056719;28;20384;-72
2021/01/17 08:58:26;;;;;;;65.20;24.15;;;;;;;1.76;98.96;100381.91;5055477;28;20124;-73
2021/01/17 09:00:52;;;;;;;72.55;24.67;;;;;;;1.78;99.13;100392.41;5055794;28;20076;-73
2021/01/17 09:03:35;;;;;;;64.97;23.10;;;;;;;1.79;99.19;100388.88;5036675;28;20045;-73
2021/01/17 09:06:03;;;;;;;69.95;25.67;;;;;;;1.80;99.22;100400.28;5036400;28;20108;-71
2021/01/17 09:08:31;;;;;;;70.25;24.58;;;;;;;1.78;99.28;100396.81;5035288;28;20053;-72
2021/01/17 09:10:58;;;;;;;78.07;23.63;;;;;;;1.87;99.30;100407.13;5046849;28;20053;-72
2021/01/17 09:13:32;;;;;;;82.63;26.42;;;;;;;1.87;99.02;100404.50;5046024;28;20049;-75
2021/01/17 09:15:59;;;;;;;76.47;25.17;;;;;;;1.93;98.92;100401.75;5047332;28;20053;-75
2021/01/17 09:18:27;;;;;;;75.68;26.45;;;;;;;1.93;99.08;100425.44;5044827;28;20505;-75
2021/01/17 09:20:54;;;;;;;82.95;25.90;;;;;;;1.95;98.99;100421.00;5042996;28;20053;-71
2021/01/17 09:23:22;;;;;;;74.68;27.33;;;;;;;1.86;99.07;100402.78;5047878;28;20045;-75
2021/01/17 09:25:56;;;;;;;79.57;26.35;;;;;;;1.93;99.56;100428.06;5042672;28;20049;-73
2021/01/17 09:28:23;;;;;;;77.00;26.45;;;;;;;1.89;99.24;100416.75;5043222;28;20072;-75
2021/01/17 09:30:51;;;;;;;81.47;27.58;;;;;;;1.99;99.45;100429.69;5046264;28;20049;-73
2021/01/17 09:33:18;;;;;;;76.78;26.15;;;;;;;2.06;99.35;100431.28;5044014;28;20977;-76
2021/01/17 09:35:46;;;;;;;81.35;27.48;;;;;;;2.10;99.42;100432.09;5043803;28;20048;-74
2021/01/17 09:38:20;;;;;;;75.25;25.92;;;;;;;2.01;99.26;100405.06;5046379;28;20046;-73
2021/01/17 09:40:50;;;;;;;72.35;26.67;;;;;;;2.09;99.17;100427.75;5044784;28;20057;-72
2021/01/17 09:43:19;;;;;;;84.45;26.85;;;;;;;2.21;99.12;100447.66;5044874;28;20049;-71
2021/01/17 09:45:55;;;;;;;81.28;26.58;;;;;;;2.15;99.02;100436.38;5030523;28;20517;-74
2021/01/17 09:48:22;;;;;;;77.47;25.48;;;;;;;2.23;99.16;100440.63;5035475;28;20057;-73
2021/01/17 09:50:50;;;;;;;70.35;26.00;;;;;;;2.31;99.26;100451.84;5048048;28;20045;-75
2021/01/17 09:53:17;;;;;;;68.05;24.35;;;;;;;2.41;99.20;100463.91;5044504;28;20052;-73
2021/01/17 09:55:45;;;;;;;68.35;24.63;;;;;;;2.41;99.12;100463.03;5035755;28;20057;-75
2021/01/17 09:58:13;;;;;;;87.35;24.50;;;;;;;2.49;98.99;100479.53;5034417;28;20435;-76
2021/01/17 10:00:42;;;;;;;70.18;24.55;;;;;;;2.49;98.92;100473.41;5035555;28;20431;-73
2021/01/17 10:03:13;;;;;;;71.15;23.45;;;;;;;2.41;99.05;100471.81;5054380;28;20055;-71
2021/01/17 10:05:41;;;;;;;;;;;;;;;2.48;99.09;100483.09;5046988;28;20132;-73
2021/01/17 10:08:10;;;;;;;71.82;21.92;;;;;;;2.46;98.84;100474.34;5039559;28;19921;-72
2021/01/17 10:10:38;;;;;;;65.40;22.83;;;;;;;2.51;98.92;100475.09;5049105;28;20099;-72
2021/01/17 10:13:08;;;;;;;76.50;22.88;;;;;;;2.61;98.81;100490.72;5045624;28;20129;-73
2021/01/17 10:15:39;;;;;;;61.97;22.35;;;;;;;2.66;98.81;100500.25;5045357;28;20052;-74
2021/01/17 10:18:07;;;;;;;58.38;21.52;;;;;;;2.60;98.54;100494.25;5044858;28;20052;-73
2021/01/17 10:20:38;;;;;;;64.90;23.10;;;;;;;2.63;98.63;100499.44;5046979;28;20431;-72
2021/01/17 10:23:06;;;;;;;65.32;22.92;;;;;;;2.63;98.73;100510.00;5052868;28;20049;-72
2021/01/17 10:25:34;;;;;;;64.15;23.33;;;;;;;2.63;98.77;100504.72;5042655;28;20048;-71
2021/01/17 10:28:02;;;;;;;64.68;21.98;;;;;;;2.70;98.56;100501.03;5043820;28;20327;-73
2021/01/17 10:30:31;;;;;;;65.63;21.80;;;;;;;2.64;98.83;100502.06;5043994;28;20056;-73
2021/01/17 10:33:16;;;;;;;58.03;22.00;;;;;;;2.68;98.69;100502.84;5045968;28;20427;-73
2021/01/17 10:35:48;;;;;;;58.13;20.67;;;;;;;2.78;98.63;100511.41;5051655;28;20041;-70
2021/01/17 10:38:18;;;;;;;68.95;22.55;;;;;;;2.80;98.67;100509.59;5045820;28;20057;-72
2021/01/17 10:40:46;;;;;;;57.15;19.38;;;;;;;2.87;98.47;100512.97;5040520;28;20351;-70
2021/01/17 10:43:22;;;;;;;64.10;21.48;;;;;;;2.86;98.70;100512.09;5046070;28;20095;-71
2021/01/17 10:46:00;;;;;;;69.60;19.42;;;;;;;2.84;98.65;100512.13;5042601;28;20041;-71
2021/01/17 10:48:26;;;;;;;51.25;19.95;;;;;;;2.88;98.59;100514.72;5041293;28;20140;-73
2021/01/17 10:50:56;;;;;;;56.15;19.52;;;;;;;3.04;98.30;100517.84;5043220;28;20072;-72
2021/01/17 10:53:33;;;;;;;65.93;20.88;;;;;;;2.96;98.40;100529.44;5045802;28;20052;-71
2021/01/17 10:56:00;;;;;;;57.50;19.65;;;;;;;2.97;98.46;100533.81;5043605;28;20351;-71
2021/01/17 10:58:44;;;;;;;52.95;19.42;;;;;;;3.02;98.41;100531.06;5040628;28;20045;-70
2021/01/17 11:01:12;;;;;;;55.58;19.15;;;;;;;3.05;98.22;100527.50;5044873;28;20088;-70
2021/01/17 11:03:40;;;;;;;62.47;20.00;;;;;;;2.98;98.17;100511.81;5043402;28;20049;-72
2021/01/17 11:06:07;;;;;;;49.60;18.75;;;;;;;3.12;98.32;100524.66;5045015;28;20419;-71
2021/01/17 11:08:45;;;;;;;53.28;19.48;;;;;;;3.15;98.01;100533.41;5038969;28;20052;-73
2021/01/17 11:11:13;;;;;;;47.17;17.13;;;;;;;3.15;98.24;100531.63;5046544;28;20057;-73
2021/01/17 11:13:39;;;;;;;50.65;18.45;;;;;;;3.19;98.15;100529.78;5046198;28;20068;-71
2021/01/17 11:16:06;;;;;;;57.63;19.48;;;;;;;3.18;98.23;100533.34;5048553;28;20060;-73
2021/01/17 11:18:33;;;;;;;56.50;17.77;;;;;;;3.23;98.01;100540.22;5053973;28;20052;-74
2021/01/17 11:21:01;;;;;;;49.78;18.35;;;;;;;3.26;98.05;100547.19;5041911;28;20049;-75
2021/01/17 11:23:28;;;;;;;62.17;18.70;;;;;;;3.31;97.90;100545.31;5040485;28;20386;-74
2021/01/17 11:25:57;;;;;;;53.50;17.95;;;;;;;3.29;98.02;100544.50;5042107;28;20439;-73
2021/01/17 11:28:26;;;;;;;57.20;17.23;;;;;;;3.35;97.64;100549.63;5042298;28;20057;-74
2021/01/17 11:31:15;;;;;;;59.13;17.02;;;;;;;3.33;97.73;100548.78;5043006;28;20042;-73